Terminal Aerodrome Forecast
Issued by NWS

Home | Current Version | Previous Version | Text Only | Print | Product List | Glossary On
Versions: 1 2 3 4 5 6 7 8 9 10 11 12 13 14 15 16 17 18 19 20
000
FTUS44 KCRP 191100
TAFALI
TAF
KALI 191135Z 1912/2012 VRB05KT 4SM BR VCTS OVC007CB
      TEMPO 1912/1916 2SM TSRA BR SCT007CB BKN011
     FM191600 01008KT P6SM OVC007
     FM192000 35011KT P6SM OVC015
     FM200600 02007KT 4SM BR OVC007=

USA.gov is the U.S. government's official web portal to all federal, state and local government web resources and services.